sensor_id;sensor_type;location;lat;lon;timestamp;temperature;humidity
69084;SHT31;56185;48.526;9.044;2023-07-29T00:00:24;18.00;88.24
69084;SHT31;56185;48.526;9.044;2023-07-29T00:02:49;18.02;88.31
69084;SHT31;56185;48.526;9.044;2023-07-29T00:05:15;17.98;88.24
69084;SHT31;56185;48.526;9.044;2023-07-29T00:07:40;17.90;88.65
69084;SHT31;56185;48.526;9.044;2023-07-29T00:10:06;17.89;88.31
69084;SHT31;56185;48.526;9.044;2023-07-29T00:12:31;17.89;88.28
69084;SHT31;56185;48.526;9.044;2023-07-29T00:14:56;17.74;89.04
69084;SHT31;56185;48.526;9.044;2023-07-29T00:17:22;17.67;89.94
69084;SHT31;56185;48.526;9.044;2023-07-29T00:19:47;17.77;89.50
69084;SHT31;56185;48.526;9.044;2023-07-29T00:22:12;17.91;88.38
69084;SHT31;56185;48.526;9.044;2023-07-29T00:24:39;17.83;88.45
69084;SHT31;56185;48.526;9.044;2023-07-29T00:27:05;17.83;89.27
69084;SHT31;56185;48.526;9.044;2023-07-29T00:29:30;17.91;88.49
69084;SHT31;56185;48.526;9.044;2023-07-29T00:31:55;17.97;87.65
69084;SHT31;56185;48.526;9.044;2023-07-29T00:34:20;17.90;87.48
69084;SHT31;56185;48.526;9.044;2023-07-29T00:36:46;17.94;87.93
69084;SHT31;56185;48.526;9.044;2023-07-29T00:39:11;17.93;88.06
69084;SHT31;56185;48.526;9.044;2023-07-29T00:41:37;17.91;88.35
69084;SHT31;56185;48.526;9.044;2023-07-29T00:44:02;17.93;88.08
69084;SHT31;56185;48.526;9.044;2023-07-29T00:46:28;17.94;87.93
69084;SHT31;56185;48.526;9.044;2023-07-29T00:48:53;17.96;87.97
69084;SHT31;56185;48.526;9.044;2023-07-29T00:51:19;17.93;88.03
69084;SHT31;56185;48.526;9.044;2023-07-29T00:53:44;17.96;87.84
69084;SHT31;56185;48.526;9.044;2023-07-29T00:56:09;17.87;88.04
69084;SHT31;56185;48.526;9.044;2023-07-29T00:58:34;17.80;88.18
69084;SHT31;56185;48.526;9.044;2023-07-29T01:01:00;17.89;87.74
69084;SHT31;56185;48.526;9.044;2023-07-29T01:03:25;17.94;87.25
69084;SHT31;56185;48.526;9.044;2023-07-29T01:06:01;17.91;87.06
69084;SHT31;56185;48.526;9.044;2023-07-29T01:08:51;17.74;88.00
69084;SHT31;56185;48.526;9.044;2023-07-29T01:11:33;17.69;88.25
69084;SHT31;56185;48.526;9.044;2023-07-29T01:14:04;17.86;87.97
69084;SHT31;56185;48.526;9.044;2023-07-29T01:16:39;17.81;87.58
69084;SHT31;56185;48.526;9.044;2023-07-29T01:19:06;17.91;87.54
69084;SHT31;56185;48.526;9.044;2023-07-29T01:21:32;17.89;87.12
69084;SHT31;56185;48.526;9.044;2023-07-29T01:23:58;17.74;87.00
69084;SHT31;56185;48.526;9.044;2023-07-29T01:26:23;17.71;87.74
69084;SHT31;56185;48.526;9.044;2023-07-29T01:28:49;17.70;87.51
69084;SHT31;56185;48.526;9.044;2023-07-29T01:31:32;17.67;87.71
69084;SHT31;56185;48.526;9.044;2023-07-29T01:34:08;17.71;87.69
69084;SHT31;56185;48.526;9.044;2023-07-29T01:36:37;17.76;87.49
69084;SHT31;56185;48.526;9.044;2023-07-29T01:39:04;17.69;87.68
69084;SHT31;56185;48.526;9.044;2023-07-29T01:41:29;17.71;87.53
69084;SHT31;56185;48.526;9.044;2023-07-29T01:43:55;17.71;87.57
69084;SHT31;56185;48.526;9.044;2023-07-29T01:46:21;17.67;87.70
69084;SHT31;56185;48.526;9.044;2023-07-29T01:48:46;17.69;87.35
69084;SHT31;56185;48.526;9.044;2023-07-29T01:51:12;17.63;87.82
69084;SHT31;56185;48.526;9.044;2023-07-29T01:53:37;17.63;87.71
69084;SHT31;56185;48.526;9.044;2023-07-29T01:56:03;17.62;87.98
69084;SHT31;56185;48.526;9.044;2023-07-29T01:58:28;17.56;87.75
69084;SHT31;56185;48.526;9.044;2023-07-29T02:00:53;17.56;87.60
69084;SHT31;56185;48.526;9.044;2023-07-29T02:03:18;17.40;88.27
69084;SHT31;56185;48.526;9.044;2023-07-29T02:05:44;17.36;88.12
69084;SHT31;56185;48.526;9.044;2023-07-29T02:08:09;17.42;87.48
69084;SHT31;56185;48.526;9.044;2023-07-29T02:10:35;17.39;88.04
69084;SHT31;56185;48.526;9.044;2023-07-29T02:13:00;17.39;87.94
69084;SHT31;56185;48.526;9.044;2023-07-29T02:15:25;17.35;87.90
69084;SHT31;56185;48.526;9.044;2023-07-29T02:17:51;17.32;88.45
69084;SHT31;56185;48.526;9.044;2023-07-29T02:20:16;17.26;88.58
69084;SHT31;56185;48.526;9.044;2023-07-29T02:22:41;17.25;88.63
69084;SHT31;56185;48.526;9.044;2023-07-29T02:25:07;17.23;89.01
69084;SHT31;56185;48.526;9.044;2023-07-29T02:27:32;17.42;88.77
69084;SHT31;56185;48.526;9.044;2023-07-29T02:29:57;17.46;88.65
69084;SHT31;56185;48.526;9.044;2023-07-29T02:32:23;17.39;89.43
69084;SHT31;56185;48.526;9.044;2023-07-29T02:34:48;17.21;90.18
69084;SHT31;56185;48.526;9.044;2023-07-29T02:37:14;17.33;89.73
69084;SHT31;56185;48.526;9.044;2023-07-29T02:39:39;17.32;89.39
69084;SHT31;56185;48.526;9.044;2023-07-29T02:42:04;17.38;89.23
69084;SHT31;56185;48.526;9.044;2023-07-29T02:44:29;17.29;89.63
69084;SHT31;56185;48.526;9.044;2023-07-29T02:46:55;17.25;90.31
69084;SHT31;56185;48.526;9.044;2023-07-29T02:49:20;17.42;89.35
69084;SHT31;56185;48.526;9.044;2023-07-29T02:51:45;17.35;89.00
69084;SHT31;56185;48.526;9.044;2023-07-29T02:54:10;17.30;89.48
69084;SHT31;56185;48.526;9.044;2023-07-29T02:56:36;17.38;89.11
69084;SHT31;56185;48.526;9.044;2023-07-29T02:59:01;17.39;88.87
69084;SHT31;56185;48.526;9.044;2023-07-29T03:01:26;17.45;88.38
69084;SHT31;56185;48.526;9.044;2023-07-29T03:03:52;17.45;88.40
69084;SHT31;56185;48.526;9.044;2023-07-29T03:06:17;17.45;88.44
69084;SHT31;56185;48.526;9.044;2023-07-29T03:08:42;17.45;88.59
69084;SHT31;56185;48.526;9.044;2023-07-29T03:11:09;17.40;88.80
69084;SHT31;56185;48.526;9.044;2023-07-29T03:13:35;17.47;88.47
69084;SHT31;56185;48.526;9.044;2023-07-29T03:16:05;17.43;88.86
69084;SHT31;56185;48.526;9.044;2023-07-29T03:18:30;17.47;88.85
69084;SHT31;56185;48.526;9.044;2023-07-29T03:20:55;17.50;88.48
69084;SHT31;56185;48.526;9.044;2023-07-29T03:23:21;17.43;88.63
69084;SHT31;56185;48.526;9.044;2023-07-29T03:25:48;17.43;88.22
69084;SHT31;56185;48.526;9.044;2023-07-29T03:28:14;17.52;88.45
69084;SHT31;56185;48.526;9.044;2023-07-29T03:30:39;17.36;88.77
69084;SHT31;56185;48.526;9.044;2023-07-29T03:33:04;17.38;88.76
69084;SHT31;56185;48.526;9.044;2023-07-29T03:35:30;17.38;88.64
69084;SHT31;56185;48.526;9.044;2023-07-29T03:37:55;17.45;88.57
69084;SHT31;56185;48.526;9.044;2023-07-29T03:40:20;17.40;88.55
69084;SHT31;56185;48.526;9.044;2023-07-29T03:42:45;17.40;88.79
69084;SHT31;56185;48.526;9.044;2023-07-29T03:45:11;17.39;88.89
69084;SHT31;56185;48.526;9.044;2023-07-29T03:47:36;17.38;88.90
69084;SHT31;56185;48.526;9.044;2023-07-29T03:50:01;17.39;88.92
69084;SHT31;56185;48.526;9.044;2023-07-29T03:52:27;17.42;88.42
69084;SHT31;56185;48.526;9.044;2023-07-29T03:54:52;17.43;88.25
69084;SHT31;56185;48.526;9.044;2023-07-29T03:57:17;17.49;88.45
69084;SHT31;56185;48.526;9.044;2023-07-29T03:59:42;17.36;88.65
69084;SHT31;56185;48.526;9.044;2023-07-29T04:02:08;17.38;89.00
69084;SHT31;56185;48.526;9.044;2023-07-29T04:04:33;17.32;89.25
69084;SHT31;56185;48.526;9.044;2023-07-29T04:06:58;17.39;89.18
69084;SHT31;56185;48.526;9.044;2023-07-29T04:09:23;17.42;88.85
69084;SHT31;56185;48.526;9.044;2023-07-29T04:11:49;17.45;88.59
69084;SHT31;56185;48.526;9.044;2023-07-29T04:14:14;17.43;88.71
69084;SHT31;56185;48.526;9.044;2023-07-29T04:16:39;17.47;88.38
69084;SHT31;56185;48.526;9.044;2023-07-29T04:19:04;17.43;88.30
69084;SHT31;56185;48.526;9.044;2023-07-29T04:21:30;17.46;88.76
69084;SHT31;56185;48.526;9.044;2023-07-29T04:23:55;17.46;88.65
69084;SHT31;56185;48.526;9.044;2023-07-29T04:26:20;17.47;88.82
69084;SHT31;56185;48.526;9.044;2023-07-29T04:28:45;17.45;88.77
69084;SHT31;56185;48.526;9.044;2023-07-29T04:31:11;17.50;88.45
69084;SHT31;56185;48.526;9.044;2023-07-29T04:33:36;17.46;88.66
69084;SHT31;56185;48.526;9.044;2023-07-29T04:36:01;17.52;88.32
69084;SHT31;56185;48.526;9.044;2023-07-29T04:38:31;17.52;88.33
69084;SHT31;56185;48.526;9.044;2023-07-29T04:40:57;17.56;87.83
69084;SHT31;56185;48.526;9.044;2023-07-29T04:43:22;17.54;87.73
69084;SHT31;56185;48.526;9.044;2023-07-29T04:45:47;17.52;87.81
69084;SHT31;56185;48.526;9.044;2023-07-29T04:48:13;17.54;87.40
69084;SHT31;56185;48.526;9.044;2023-07-29T04:50:38;17.52;87.86
69084;SHT31;56185;48.526;9.044;2023-07-29T04:53:03;17.45;88.47
69084;SHT31;56185;48.526;9.044;2023-07-29T04:55:28;17.54;88.39
69084;SHT31;56185;48.526;9.044;2023-07-29T04:57:54;17.60;87.29
69084;SHT31;56185;48.526;9.044;2023-07-29T05:00:19;17.54;87.80
69084;SHT31;56185;48.526;9.044;2023-07-29T05:02:44;17.57;89.13
69084;SHT31;56185;48.526;9.044;2023-07-29T05:05:09;17.57;90.21
69084;SHT31;56185;48.526;9.044;2023-07-29T05:07:34;17.32;91.46
69084;SHT31;56185;48.526;9.044;2023-07-29T05:10:00;17.49;91.57
69084;SHT31;56185;48.526;9.044;2023-07-29T05:12:25;17.52;90.92
69084;SHT31;56185;48.526;9.044;2023-07-29T05:14:50;17.52;91.18
69084;SHT31;56185;48.526;9.044;2023-07-29T05:17:15;17.42;91.75
69084;SHT31;56185;48.526;9.044;2023-07-29T05:19:41;17.47;91.60
69084;SHT31;56185;48.526;9.044;2023-07-29T05:22:06;17.53;90.66
69084;SHT31;56185;48.526;9.044;2023-07-29T05:24:31;17.54;90.93
69084;SHT31;56185;48.526;9.044;2023-07-29T05:26:57;17.53;91.42
69084;SHT31;56185;48.526;9.044;2023-07-29T05:29:23;17.52;91.14
69084;SHT31;56185;48.526;9.044;2023-07-29T05:31:48;17.46;91.50
69084;SHT31;56185;48.526;9.044;2023-07-29T05:34:14;17.47;91.31
69084;SHT31;56185;48.526;9.044;2023-07-29T05:36:39;17.54;91.26
69084;SHT31;56185;48.526;9.044;2023-07-29T05:39:05;17.53;91.43
69084;SHT31;56185;48.526;9.044;2023-07-29T05:41:30;17.57;91.47
69084;SHT31;56185;48.526;9.044;2023-07-29T05:43:55;17.67;91.61
69084;SHT31;56185;48.526;9.044;2023-07-29T05:46:20;17.79;90.78
69084;SHT31;56185;48.526;9.044;2023-07-29T05:48:46;17.94;90.56
69084;SHT31;56185;48.526;9.044;2023-07-29T05:51:11;17.96;90.56
69084;SHT31;56185;48.526;9.044;2023-07-29T05:53:38;17.94;90.95
69084;SHT31;56185;48.526;9.044;2023-07-29T05:56:05;18.11;90.31
69084;SHT31;56185;48.526;9.044;2023-07-29T05:58:31;18.12;89.76
69084;SHT31;56185;48.526;9.044;2023-07-29T06:00:57;18.11;89.93
69084;SHT31;56185;48.526;9.044;2023-07-29T06:03:22;18.02;90.45
69084;SHT31;56185;48.526;9.044;2023-07-29T06:05:48;17.94;91.06
69084;SHT31;56185;48.526;9.044;2023-07-29T06:08:16;17.93;91.35
69084;SHT31;56185;48.526;9.044;2023-07-29T06:10:41;18.04;90.62
69084;SHT31;56185;48.526;9.044;2023-07-29T06:13:07;18.07;89.84
69084;SHT31;56185;48.526;9.044;2023-07-29T06:15:34;18.05;90.55
69084;SHT31;56185;48.526;9.044;2023-07-29T06:17:59;18.07;90.82
69084;SHT31;56185;48.526;9.044;2023-07-29T06:20:24;18.04;90.85
69084;SHT31;56185;48.526;9.044;2023-07-29T06:22:49;18.04;91.11
69084;SHT31;56185;48.526;9.044;2023-07-29T06:25:15;18.12;90.96
69084;SHT31;56185;48.526;9.044;2023-07-29T06:27:40;18.14;90.73
69084;SHT31;56185;48.526;9.044;2023-07-29T06:30:05;18.11;90.86
69084;SHT31;56185;48.526;9.044;2023-07-29T06:32:31;18.17;90.91
69084;SHT31;56185;48.526;9.044;2023-07-29T06:34:56;18.14;91.18
69084;SHT31;56185;48.526;9.044;2023-07-29T06:37:22;18.18;91.25
69084;SHT31;56185;48.526;9.044;2023-07-29T06:39:47;18.18;90.76
69084;SHT31;56185;48.526;9.044;2023-07-29T06:42:13;18.27;90.80
69084;SHT31;56185;48.526;9.044;2023-07-29T06:44:40;18.24;90.02
69084;SHT31;56185;48.526;9.044;2023-07-29T06:47:06;18.27;90.11
69084;SHT31;56185;48.526;9.044;2023-07-29T06:49:31;18.34;89.67
69084;SHT31;56185;48.526;9.044;2023-07-29T06:51:57;18.34;90.09
69084;SHT31;56185;48.526;9.044;2023-07-29T06:54:25;18.28;91.00
69084;SHT31;56185;48.526;9.044;2023-07-29T06:56:50;18.18;90.05
69084;SHT31;56185;48.526;9.044;2023-07-29T06:59:17;18.24;90.24
69084;SHT31;56185;48.526;9.044;2023-07-29T07:01:42;18.08;91.15
69084;SHT31;56185;48.526;9.044;2023-07-29T07:04:07;18.10;91.22
69084;SHT31;56185;48.526;9.044;2023-07-29T07:06:32;18.11;91.38
69084;SHT31;56185;48.526;9.044;2023-07-29T07:08:58;18.11;91.38
69084;SHT31;56185;48.526;9.044;2023-07-29T07:11:23;18.17;91.12
69084;SHT31;56185;48.526;9.044;2023-07-29T07:13:48;18.28;91.09
69084;SHT31;56185;48.526;9.044;2023-07-29T07:16:13;18.22;91.61
69084;SHT31;56185;48.526;9.044;2023-07-29T07:18:38;18.24;91.67
69084;SHT31;56185;48.526;9.044;2023-07-29T07:21:04;18.28;91.07
69084;SHT31;56185;48.526;9.044;2023-07-29T07:23:29;18.31;91.56
69084;SHT31;56185;48.526;9.044;2023-07-29T07:25:54;18.34;91.36
69084;SHT31;56185;48.526;9.044;2023-07-29T07:28:19;18.39;91.47
69084;SHT31;56185;48.526;9.044;2023-07-29T07:30:45;18.47;91.32
69084;SHT31;56185;48.526;9.044;2023-07-29T07:33:10;18.53;91.46
69084;SHT31;56185;48.526;9.044;2023-07-29T07:35:35;18.58;91.21
69084;SHT31;56185;48.526;9.044;2023-07-29T07:38:01;18.66;90.44
69084;SHT31;56185;48.526;9.044;2023-07-29T07:40:26;18.72;91.05
69084;SHT31;56185;48.526;9.044;2023-07-29T07:42:51;18.72;90.83
69084;SHT31;56185;48.526;9.044;2023-07-29T07:45:16;18.77;90.95
69084;SHT31;56185;48.526;9.044;2023-07-29T07:47:42;18.79;91.28
69084;SHT31;56185;48.526;9.044;2023-07-29T07:50:09;18.80;91.32
69084;SHT31;56185;48.526;9.044;2023-07-29T07:52:36;18.82;90.76
69084;SHT31;56185;48.526;9.044;2023-07-29T07:55:03;18.86;90.48
69084;SHT31;56185;48.526;9.044;2023-07-29T07:57:29;18.90;91.27
69084;SHT31;56185;48.526;9.044;2023-07-29T07:59:57;18.93;91.11
69084;SHT31;56185;48.526;9.044;2023-07-29T08:02:27;18.92;89.92
69084;SHT31;56185;48.526;9.044;2023-07-29T08:04:52;18.90;89.61
69084;SHT31;56185;48.526;9.044;2023-07-29T08:07:17;18.92;89.90
69084;SHT31;56185;48.526;9.044;2023-07-29T08:09:44;18.95;90.54
69084;SHT31;56185;48.526;9.044;2023-07-29T08:12:09;19.16;89.96
69084;SHT31;56185;48.526;9.044;2023-07-29T08:14:34;18.99;90.41
69084;SHT31;56185;48.526;9.044;2023-07-29T08:16:59;18.96;90.55
69084;SHT31;56185;48.526;9.044;2023-07-29T08:19:25;19.00;90.73
69084;SHT31;56185;48.526;9.044;2023-07-29T08:21:50;19.02;91.24
69084;SHT31;56185;48.526;9.044;2023-07-29T08:24:15;18.96;91.55
69084;SHT31;56185;48.526;9.044;2023-07-29T08:26:40;19.03;91.83
69084;SHT31;56185;48.526;9.044;2023-07-29T08:29:06;19.14;91.60
69084;SHT31;56185;48.526;9.044;2023-07-29T08:31:31;19.21;91.41
69084;SHT31;56185;48.526;9.044;2023-07-29T08:33:56;19.28;91.33
69084;SHT31;56185;48.526;9.044;2023-07-29T08:36:21;19.34;91.10
69084;SHT31;56185;48.526;9.044;2023-07-29T08:38:47;19.32;91.21
69084;SHT31;56185;48.526;9.044;2023-07-29T08:41:32;19.46;90.88
69084;SHT31;56185;48.526;9.044;2023-07-29T08:44:09;19.57;91.03
69084;SHT31;56185;48.526;9.044;2023-07-29T08:46:35;19.76;90.44
69084;SHT31;56185;48.526;9.044;2023-07-29T08:49:01;19.75;91.08
69084;SHT31;56185;48.526;9.044;2023-07-29T08:51:29;19.88;91.00
69084;SHT31;56185;48.526;9.044;2023-07-29T08:53:56;20.06;91.17
69084;SHT31;56185;48.526;9.044;2023-07-29T08:56:21;20.15;91.76
69084;SHT31;56185;48.526;9.044;2023-07-29T08:58:49;20.30;91.85
69084;SHT31;56185;48.526;9.044;2023-07-29T09:01:18;20.51;91.53
69084;SHT31;56185;48.526;9.044;2023-07-29T09:03:44;20.53;91.26
69084;SHT31;56185;48.526;9.044;2023-07-29T09:06:09;20.53;90.52
69084;SHT31;56185;48.526;9.044;2023-07-29T09:08:35;20.66;91.19
69084;SHT31;56185;48.526;9.044;2023-07-29T09:11:00;20.71;90.66
69084;SHT31;56185;48.526;9.044;2023-07-29T09:13:26;20.83;90.54
69084;SHT31;56185;48.526;9.044;2023-07-29T09:15:54;20.84;88.45
69084;SHT31;56185;48.526;9.044;2023-07-29T09:18:30;20.98;89.17
69084;SHT31;56185;48.526;9.044;2023-07-29T09:21:11;21.08;88.27
69084;SHT31;56185;48.526;9.044;2023-07-29T09:23:43;21.12;88.45
69084;SHT31;56185;48.526;9.044;2023-07-29T09:26:09;21.24;88.97
69084;SHT31;56185;48.526;9.044;2023-07-29T09:28:37;21.36;86.95
69084;SHT31;56185;48.526;9.044;2023-07-29T09:31:03;21.50;88.18
69084;SHT31;56185;48.526;9.044;2023-07-29T09:33:36;21.56;85.66
69084;SHT31;56185;48.526;9.044;2023-07-29T09:36:08;21.56;85.93
69084;SHT31;56185;48.526;9.044;2023-07-29T09:38:35;21.56;86.48
69084;SHT31;56185;48.526;9.044;2023-07-29T09:41:01;21.63;86.52
69084;SHT31;56185;48.526;9.044;2023-07-29T09:43:34;21.79;86.33
69084;SHT31;56185;48.526;9.044;2023-07-29T09:46:18;21.87;84.12
69084;SHT31;56185;48.526;9.044;2023-07-29T09:48:43;21.89;84.53
69084;SHT31;56185;48.526;9.044;2023-07-29T09:51:14;21.98;85.84
69084;SHT31;56185;48.526;9.044;2023-07-29T09:53:46;21.92;84.57
69084;SHT31;56185;48.526;9.044;2023-07-29T09:56:12;21.70;83.38
69084;SHT31;56185;48.526;9.044;2023-07-29T09:58:37;21.84;82.75
69084;SHT31;56185;48.526;9.044;2023-07-29T10:01:11;21.83;83.82
69084;SHT31;56185;48.526;9.044;2023-07-29T10:03:37;21.89;82.99
69084;SHT31;56185;48.526;9.044;2023-07-29T10:06:03;21.86;82.87
69084;SHT31;56185;48.526;9.044;2023-07-29T10:08:32;21.92;82.91
69084;SHT31;56185;48.526;9.044;2023-07-29T10:11:01;22.07;80.31
69084;SHT31;56185;48.526;9.044;2023-07-29T10:13:27;22.22;80.32
69084;SHT31;56185;48.526;9.044;2023-07-29T10:15:54;22.35;80.85
69084;SHT31;56185;48.526;9.044;2023-07-29T10:18:20;22.22;80.30
69084;SHT31;56185;48.526;9.044;2023-07-29T10:20:48;22.38;78.29
69084;SHT31;56185;48.526;9.044;2023-07-29T10:23:15;22.49;78.00
69084;SHT31;56185;48.526;9.044;2023-07-29T10:25:47;22.48;80.85
69084;SHT31;56185;48.526;9.044;2023-07-29T10:28:15;22.38;78.91
69084;SHT31;56185;48.526;9.044;2023-07-29T10:30:41;22.47;77.72
69084;SHT31;56185;48.526;9.044;2023-07-29T10:33:06;22.53;78.74
69084;SHT31;56185;48.526;9.044;2023-07-29T10:35:35;22.45;78.37
69084;SHT31;56185;48.526;9.044;2023-07-29T10:38:02;22.51;75.40
69084;SHT31;56185;48.526;9.044;2023-07-29T10:40:44;22.62;74.85
69084;SHT31;56185;48.526;9.044;2023-07-29T10:43:11;22.76;75.41
69084;SHT31;56185;48.526;9.044;2023-07-29T10:45:37;22.85;74.07
69084;SHT31;56185;48.526;9.044;2023-07-29T10:53:54;23.03;72.93
69084;SHT31;56185;48.526;9.044;2023-07-29T10:56:28;23.20;72.74
69084;SHT31;56185;48.526;9.044;2023-07-29T10:58:58;23.31;71.59
69084;SHT31;56185;48.526;9.044;2023-07-29T11:01:28;23.53;70.84
69084;SHT31;56185;48.526;9.044;2023-07-29T11:04:46;23.58;71.75
69084;SHT31;56185;48.526;9.044;2023-07-29T11:17:34;23.97;68.47
69084;SHT31;56185;48.526;9.044;2023-07-29T11:20:02;23.89;67.22
69084;SHT31;56185;48.526;9.044;2023-07-29T11:22:28;23.91;67.85
69084;SHT31;56185;48.526;9.044;2023-07-29T11:24:53;23.79;67.35
69084;SHT31;56185;48.526;9.044;2023-07-29T11:27:18;23.81;65.96
69084;SHT31;56185;48.526;9.044;2023-07-29T11:29:44;23.89;68.09
69084;SHT31;56185;48.526;9.044;2023-07-29T11:32:09;23.89;67.45
69084;SHT31;56185;48.526;9.044;2023-07-29T11:34:34;23.94;67.99
69084;SHT31;56185;48.526;9.044;2023-07-29T11:37:00;24.02;67.99
69084;SHT31;56185;48.526;9.044;2023-07-29T11:39:25;24.05;64.61
69084;SHT31;56185;48.526;9.044;2023-07-29T11:41:50;24.22;66.89
69084;SHT31;56185;48.526;9.044;2023-07-29T11:44:19;24.29;64.54
69084;SHT31;56185;48.526;9.044;2023-07-29T11:46:44;24.44;64.60
69084;SHT31;56185;48.526;9.044;2023-07-29T11:49:10;24.55;64.73
69084;SHT31;56185;48.526;9.044;2023-07-29T11:51:38;24.61;64.29
69084;SHT31;56185;48.526;9.044;2023-07-29T11:54:03;24.63;63.60
69084;SHT31;56185;48.526;9.044;2023-07-29T11:56:29;24.55;62.47
69084;SHT31;56185;48.526;9.044;2023-07-29T11:58:54;24.63;64.84
69084;SHT31;56185;48.526;9.044;2023-07-29T12:01:20;24.64;65.40
69084;SHT31;56185;48.526;9.044;2023-07-29T12:03:47;24.84;66.25
69084;SHT31;56185;48.526;9.044;2023-07-29T12:06:13;24.88;63.93
69084;SHT31;56185;48.526;9.044;2023-07-29T12:08:38;24.98;64.46
69084;SHT31;56185;48.526;9.044;2023-07-29T12:11:04;24.92;64.90
69084;SHT31;56185;48.526;9.044;2023-07-29T12:13:29;25.08;63.86
69084;SHT31;56185;48.526;9.044;2023-07-29T12:16:01;25.19;65.03
69084;SHT31;56185;48.526;9.044;2023-07-29T12:18:31;25.39;64.25
69084;SHT31;56185;48.526;9.044;2023-07-29T12:20:56;25.53;65.02
69084;SHT31;56185;48.526;9.044;2023-07-29T12:23:24;25.42;63.15
69084;SHT31;56185;48.526;9.044;2023-07-29T12:25:57;25.27;62.95
69084;SHT31;56185;48.526;9.044;2023-07-29T12:28:23;25.17;63.34
69084;SHT31;56185;48.526;9.044;2023-07-29T12:30:52;25.11;63.71
69084;SHT31;56185;48.526;9.044;2023-07-29T12:33:34;25.10;64.67
69084;SHT31;56185;48.526;9.044;2023-07-29T12:36:00;25.05;63.61
69084;SHT31;56185;48.526;9.044;2023-07-29T12:38:26;25.08;63.88
69084;SHT31;56185;48.526;9.044;2023-07-29T12:40:55;25.08;61.69
69084;SHT31;56185;48.526;9.044;2023-07-29T12:43:22;25.12;63.86
69084;SHT31;56185;48.526;9.044;2023-07-29T12:45:50;25.14;64.68
69084;SHT31;56185;48.526;9.044;2023-07-29T12:48:16;25.15;64.15
69084;SHT31;56185;48.526;9.044;2023-07-29T12:50:41;25.12;63.43
69084;SHT31;56185;48.526;9.044;2023-07-29T12:53:08;25.15;61.86
69084;SHT31;56185;48.526;9.044;2023-07-29T12:55:34;25.17;61.57
69084;SHT31;56185;48.526;9.044;2023-07-29T12:58:00;25.14;62.75
69084;SHT31;56185;48.526;9.044;2023-07-29T13:00:25;25.19;61.76
69084;SHT31;56185;48.526;9.044;2023-07-29T13:02:50;25.27;60.30
69084;SHT31;56185;48.526;9.044;2023-07-29T13:05:16;25.27;60.39
69084;SHT31;56185;48.526;9.044;2023-07-29T13:07:42;25.29;61.16
69084;SHT31;56185;48.526;9.044;2023-07-29T13:10:09;25.19;60.63
69084;SHT31;56185;48.526;9.044;2023-07-29T13:12:34;25.17;60.22
69084;SHT31;56185;48.526;9.044;2023-07-29T13:14:59;25.24;61.09
69084;SHT31;56185;48.526;9.044;2023-07-29T13:17:25;25.12;58.12
69084;SHT31;56185;48.526;9.044;2023-07-29T13:19:50;25.08;56.21
69084;SHT31;56185;48.526;9.044;2023-07-29T13:22:15;25.35;56.76
69084;SHT31;56185;48.526;9.044;2023-07-29T13:24:44;25.38;55.31
69084;SHT31;56185;48.526;9.044;2023-07-29T13:27:09;25.52;55.91
69084;SHT31;56185;48.526;9.044;2023-07-29T13:29:34;25.45;57.08
69084;SHT31;56185;48.526;9.044;2023-07-29T13:31:59;25.49;56.84
69084;SHT31;56185;48.526;9.044;2023-07-29T13:34:24;25.56;56.09
69084;SHT31;56185;48.526;9.044;2023-07-29T13:36:50;25.52;55.32
69084;SHT31;56185;48.526;9.044;2023-07-29T13:39:15;25.46;57.34
69084;SHT31;56185;48.526;9.044;2023-07-29T13:41:41;25.46;56.23
69084;SHT31;56185;48.526;9.044;2023-07-29T13:44:06;25.35;55.52
69084;SHT31;56185;48.526;9.044;2023-07-29T13:46:31;25.29;56.70
69084;SHT31;56185;48.526;9.044;2023-07-29T13:48:57;25.28;56.71
69084;SHT31;56185;48.526;9.044;2023-07-29T13:51:22;25.14;56.09
69084;SHT31;56185;48.526;9.044;2023-07-29T13:53:47;25.14;56.03
69084;SHT31;56185;48.526;9.044;2023-07-29T13:56:13;25.22;55.13
69084;SHT31;56185;48.526;9.044;2023-07-29T13:58:38;25.28;57.12
69084;SHT31;56185;48.526;9.044;2023-07-29T14:01:03;25.36;55.80
69084;SHT31;56185;48.526;9.044;2023-07-29T14:03:28;25.17;56.20
69084;SHT31;56185;48.526;9.044;2023-07-29T14:05:54;25.27;56.01
69084;SHT31;56185;48.526;9.044;2023-07-29T14:08:19;25.19;55.30
69084;SHT31;56185;48.526;9.044;2023-07-29T14:10:44;25.27;56.47
69084;SHT31;56185;48.526;9.044;2023-07-29T14:13:10;25.18;56.81
69084;SHT31;56185;48.526;9.044;2023-07-29T14:15:36;25.19;56.57
69084;SHT31;56185;48.526;9.044;2023-07-29T14:18:01;25.15;57.79
69084;SHT31;56185;48.526;9.044;2023-07-29T14:20:26;25.25;58.42
69084;SHT31;56185;48.526;9.044;2023-07-29T14:22:51;25.36;57.19
69084;SHT31;56185;48.526;9.044;2023-07-29T14:25:17;25.31;57.47
69084;SHT31;56185;48.526;9.044;2023-07-29T14:27:42;25.34;57.70
69084;SHT31;56185;48.526;9.044;2023-07-29T14:30:07;25.35;57.98
69084;SHT31;56185;48.526;9.044;2023-07-29T14:32:33;25.52;57.28
69084;SHT31;56185;48.526;9.044;2023-07-29T14:34:58;25.59;57.54
69084;SHT31;56185;48.526;9.044;2023-07-29T14:37:23;25.58;56.29
69084;SHT31;56185;48.526;9.044;2023-07-29T14:39:49;25.66;56.62
69084;SHT31;56185;48.526;9.044;2023-07-29T14:42:14;25.72;55.78
69084;SHT31;56185;48.526;9.044;2023-07-29T14:44:39;25.67;55.71
69084;SHT31;56185;48.526;9.044;2023-07-29T14:47:05;25.66;56.41
69084;SHT31;56185;48.526;9.044;2023-07-29T14:49:30;25.62;55.99
69084;SHT31;56185;48.526;9.044;2023-07-29T14:51:55;25.55;56.20
69084;SHT31;56185;48.526;9.044;2023-07-29T14:54:21;25.53;56.45
69084;SHT31;56185;48.526;9.044;2023-07-29T14:56:46;25.42;56.52
69084;SHT31;56185;48.526;9.044;2023-07-29T14:59:11;25.46;56.25
69084;SHT31;56185;48.526;9.044;2023-07-29T15:01:36;25.42;56.04
69084;SHT31;56185;48.526;9.044;2023-07-29T15:04:02;25.32;57.18
69084;SHT31;56185;48.526;9.044;2023-07-29T15:06:27;25.35;55.66
69084;SHT31;56185;48.526;9.044;2023-07-29T15:08:52;25.35;56.07
69084;SHT31;56185;48.526;9.044;2023-07-29T15:11:18;25.46;55.71
69084;SHT31;56185;48.526;9.044;2023-07-29T15:13:43;25.39;55.47
69084;SHT31;56185;48.526;9.044;2023-07-29T15:16:11;25.48;56.43
69084;SHT31;56185;48.526;9.044;2023-07-29T15:18:36;25.29;56.02
69084;SHT31;56185;48.526;9.044;2023-07-29T15:21:02;25.32;56.24
69084;SHT31;56185;48.526;9.044;2023-07-29T15:23:27;25.31;56.30
69084;SHT31;56185;48.526;9.044;2023-07-29T15:25:53;25.15;57.14
69084;SHT31;56185;48.526;9.044;2023-07-29T15:28:18;25.27;55.77
69084;SHT31;56185;48.526;9.044;2023-07-29T15:30:43;25.27;55.79
69084;SHT31;56185;48.526;9.044;2023-07-29T15:33:08;25.35;56.13
69084;SHT31;56185;48.526;9.044;2023-07-29T15:35:38;25.35;54.98
69084;SHT31;56185;48.526;9.044;2023-07-29T15:38:06;25.34;56.05
69084;SHT31;56185;48.526;9.044;2023-07-29T15:40:32;25.39;55.47